sensor_id;sensor_type;location;lat;lon;timestamp;P1;durP1;ratioP1;P2;durP2;ratioP2
63499;SDS011;49654;51.142;14.924;2024-03-25T00:00:23;7.13;;;6.17;;
63499;SDS011;49654;51.142;14.924;2024-03-25T00:02:50;6.77;;;5.83;;
63499;SDS011;49654;51.142;14.924;2024-03-25T00:05:17;6.90;;;6.17;;
63499;SDS011;49654;51.142;14.924;2024-03-25T00:07:48;8.03;;;6.43;;
63499;SDS011;49654;51.142;14.924;2024-03-25T00:10:14;7.43;;;6.47;;
63499;SDS011;49654;51.142;14.924;2024-03-25T00:12:43;9.43;;;6.83;;
63499;SDS011;49654;51.142;14.924;2024-03-25T00:15:09;6.80;;;6.10;;
63499;SDS011;49654;51.142;14.924;2024-03-25T00:17:36;8.17;;;6.60;;
63499;SDS011;49654;51.142;14.924;2024-03-25T00:20:02;9.77;;;7.10;;
63499;SDS011;49654;51.142;14.924;2024-03-25T00:22:31;8.00;;;6.90;;
63499;SDS011;49654;51.142;14.924;2024-03-25T00:24:57;8.47;;;6.90;;
63499;SDS011;49654;51.142;14.924;2024-03-25T00:27:24;8.60;;;6.40;;
63499;SDS011;49654;51.142;14.924;2024-03-25T00:29:51;7.97;;;6.43;;
63499;SDS011;49654;51.142;14.924;2024-03-25T00:32:18;8.23;;;6.97;;
63499;SDS011;49654;51.142;14.924;2024-03-25T00:34:44;8.87;;;7.40;;
63499;SDS011;49654;51.142;14.924;2024-03-25T00:37:11;8.57;;;7.07;;
63499;SDS011;49654;51.142;14.924;2024-03-25T00:39:37;6.97;;;6.27;;
63499;SDS011;49654;51.142;14.924;2024-03-25T00:42:04;5.97;;;5.00;;
63499;SDS011;49654;51.142;14.924;2024-03-25T00:44:30;6.20;;;5.00;;
63499;SDS011;49654;51.142;14.924;2024-03-25T00:46:58;7.33;;;4.70;;
63499;SDS011;49654;51.142;14.924;2024-03-25T00:49:24;5.20;;;4.70;;
63499;SDS011;49654;51.142;14.924;2024-03-25T00:51:51;5.90;;;4.70;;
63499;SDS011;49654;51.142;14.924;2024-03-25T00:54:17;5.33;;;4.37;;
63499;SDS011;49654;51.142;14.924;2024-03-25T00:56:44;4.40;;;4.00;;
63499;SDS011;49654;51.142;14.924;2024-03-25T00:59:11;5.33;;;4.23;;
63499;SDS011;49654;51.142;14.924;2024-03-25T01:01:38;4.77;;;4.00;;
63499;SDS011;49654;51.142;14.924;2024-03-25T01:04:06;6.00;;;4.80;;
63499;SDS011;49654;51.142;14.924;2024-03-25T01:06:33;4.97;;;3.37;;
63499;SDS011;49654;51.142;14.924;2024-03-25T01:08:59;4.80;;;3.90;;
63499;SDS011;49654;51.142;14.924;2024-03-25T01:11:26;4.50;;;4.00;;
63499;SDS011;49654;51.142;14.924;2024-03-25T01:13:52;4.57;;;3.83;;
63499;SDS011;49654;51.142;14.924;2024-03-25T01:16:19;4.20;;;3.80;;
63499;SDS011;49654;51.142;14.924;2024-03-25T01:18:45;3.93;;;3.60;;
63499;SDS011;49654;51.142;14.924;2024-03-25T01:21:13;4.67;;;3.53;;
63499;SDS011;49654;51.142;14.924;2024-03-25T01:23:39;4.63;;;3.40;;
63499;SDS011;49654;51.142;14.924;2024-03-25T01:26:06;3.67;;;3.33;;
63499;SDS011;49654;51.142;14.924;2024-03-25T01:28:32;3.83;;;3.43;;
63499;SDS011;49654;51.142;14.924;2024-03-25T01:30:59;3.87;;;3.33;;
63499;SDS011;49654;51.142;14.924;2024-03-25T01:33:25;4.80;;;3.33;;
63499;SDS011;49654;51.142;14.924;2024-03-25T01:35:51;4.63;;;3.10;;
63499;SDS011;49654;51.142;14.924;2024-03-25T01:38:21;3.53;;;3.23;;
63499;SDS011;49654;51.142;14.924;2024-03-25T01:40:48;3.37;;;3.07;;
63499;SDS011;49654;51.142;14.924;2024-03-25T01:43:14;4.65;;;3.50;;
63499;SDS011;49654;51.142;14.924;2024-03-25T01:45:42;4.37;;;3.10;;
63499;SDS011;49654;51.142;14.924;2024-03-25T01:48:08;4.30;;;2.90;;
63499;SDS011;49654;51.142;14.924;2024-03-25T01:50:39;3.03;;;2.77;;
63499;SDS011;49654;51.142;14.924;2024-03-25T01:53:07;3.47;;;3.17;;
63499;SDS011;49654;51.142;14.924;2024-03-25T01:55:36;4.07;;;2.90;;
63499;SDS011;49654;51.142;14.924;2024-03-25T01:58:03;3.20;;;2.90;;
63499;SDS011;49654;51.142;14.924;2024-03-25T02:00:31;4.23;;;2.90;;
63499;SDS011;49654;51.142;14.924;2024-03-25T02:02:58;4.40;;;3.03;;
63499;SDS011;49654;51.142;14.924;2024-03-25T02:05:25;3.10;;;2.80;;
63499;SDS011;49654;51.142;14.924;2024-03-25T02:07:52;3.40;;;2.87;;
63499;SDS011;49654;51.142;14.924;2024-03-25T02:10:20;2.93;;;2.63;;
63499;SDS011;49654;51.142;14.924;2024-03-25T02:12:48;3.77;;;2.60;;
63499;SDS011;49654;51.142;14.924;2024-03-25T02:15:16;3.53;;;3.23;;
63499;SDS011;49654;51.142;14.924;2024-03-25T02:17:43;3.07;;;2.77;;
63499;SDS011;49654;51.142;14.924;2024-03-25T02:20:10;3.23;;;2.93;;
63499;SDS011;49654;51.142;14.924;2024-03-25T02:22:38;2.80;;;2.60;;
63499;SDS011;49654;51.142;14.924;2024-03-25T02:25:05;2.78;;;2.58;;
63499;SDS011;49654;51.142;14.924;2024-03-25T02:27:35;4.50;;;2.47;;
63499;SDS011;49654;51.142;14.924;2024-03-25T02:30:03;3.10;;;2.80;;
63499;SDS011;49654;51.142;14.924;2024-03-25T02:32:31;4.00;;;2.80;;
63499;SDS011;49654;51.142;14.924;2024-03-25T02:34:58;3.30;;;2.83;;
63499;SDS011;49654;51.142;14.924;2024-03-25T02:37:24;3.07;;;2.77;;
63499;SDS011;49654;51.142;14.924;2024-03-25T02:39:53;3.10;;;2.80;;
63499;SDS011;49654;51.142;14.924;2024-03-25T02:42:22;3.83;;;3.30;;
63499;SDS011;49654;51.142;14.924;2024-03-25T02:44:51;3.93;;;3.20;;
63499;SDS011;49654;51.142;14.924;2024-03-25T02:47:17;3.63;;;3.33;;
63499;SDS011;49654;51.142;14.924;2024-03-25T02:49:45;6.33;;;3.80;;
63499;SDS011;49654;51.142;14.924;2024-03-25T02:52:11;4.70;;;3.50;;
63499;SDS011;49654;51.142;14.924;2024-03-25T02:54:38;5.30;;;3.60;;
63499;SDS011;49654;51.142;14.924;2024-03-25T02:57:04;3.50;;;3.20;;
63499;SDS011;49654;51.142;14.924;2024-03-25T02:59:31;3.40;;;3.10;;
63499;SDS011;49654;51.142;14.924;2024-03-25T03:01:58;4.03;;;3.47;;
63499;SDS011;49654;51.142;14.924;2024-03-25T03:04:25;4.00;;;3.60;;
63499;SDS011;49654;51.142;14.924;2024-03-25T03:06:51;4.33;;;3.83;;
63499;SDS011;49654;51.142;14.924;2024-03-25T03:09:18;4.50;;;3.80;;
63499;SDS011;49654;51.142;14.924;2024-03-25T03:11:44;4.57;;;4.17;;
63499;SDS011;49654;51.142;14.924;2024-03-25T03:14:10;4.60;;;4.20;;
63499;SDS011;49654;51.142;14.924;2024-03-25T03:16:36;5.53;;;4.70;;
63499;SDS011;49654;51.142;14.924;2024-03-25T03:19:05;5.57;;;4.90;;
63499;SDS011;49654;51.142;14.924;2024-03-25T03:21:31;6.97;;;5.83;;
63499;SDS011;49654;51.142;14.924;2024-03-25T03:23:57;6.37;;;5.30;;
63499;SDS011;49654;51.142;14.924;2024-03-25T03:26:23;5.73;;;5.03;;
63499;SDS011;49654;51.142;14.924;2024-03-25T03:28:52;6.43;;;5.33;;
63499;SDS011;49654;51.142;14.924;2024-03-25T03:31:18;5.57;;;4.97;;
63499;SDS011;49654;51.142;14.924;2024-03-25T03:33:47;5.43;;;4.67;;
63499;SDS011;49654;51.142;14.924;2024-03-25T03:36:15;5.00;;;4.50;;
63499;SDS011;49654;51.142;14.924;2024-03-25T03:38:42;5.63;;;4.50;;
63499;SDS011;49654;51.142;14.924;2024-03-25T03:41:08;4.33;;;3.37;;
63499;SDS011;49654;51.142;14.924;2024-03-25T03:43:36;4.33;;;3.33;;
63499;SDS011;49654;51.142;14.924;2024-03-25T03:46:02;4.60;;;3.77;;
63499;SDS011;49654;51.142;14.924;2024-03-25T03:48:29;5.67;;;4.20;;
63499;SDS011;49654;51.142;14.924;2024-03-25T03:50:55;4.03;;;3.67;;
63499;SDS011;49654;51.142;14.924;2024-03-25T03:53:23;4.27;;;3.87;;
63499;SDS011;49654;51.142;14.924;2024-03-25T03:55:55;4.47;;;3.83;;
63499;SDS011;49654;51.142;14.924;2024-03-25T03:58:23;5.50;;;4.13;;
63499;SDS011;49654;51.142;14.924;2024-03-25T04:00:50;5.07;;;4.23;;
63499;SDS011;49654;51.142;14.924;2024-03-25T04:03:17;6.60;;;4.70;;
63499;SDS011;49654;51.142;14.924;2024-03-25T04:05:43;6.43;;;4.20;;
63499;SDS011;49654;51.142;14.924;2024-03-25T04:08:10;5.93;;;4.50;;
63499;SDS011;49654;51.142;14.924;2024-03-25T04:10:37;6.50;;;4.67;;
63499;SDS011;49654;51.142;14.924;2024-03-25T04:13:06;6.40;;;4.97;;
63499;SDS011;49654;51.142;14.924;2024-03-25T04:15:33;5.53;;;4.83;;
63499;SDS011;49654;51.142;14.924;2024-03-25T04:18:00;9.77;;;5.00;;
63499;SDS011;49654;51.142;14.924;2024-03-25T04:20:26;5.80;;;4.83;;
63499;SDS011;49654;51.142;14.924;2024-03-25T04:22:54;6.40;;;4.40;;
63499;SDS011;49654;51.142;14.924;2024-03-25T04:25:20;5.73;;;4.93;;
63499;SDS011;49654;51.142;14.924;2024-03-25T04:27:49;4.13;;;3.73;;
63499;SDS011;49654;51.142;14.924;2024-03-25T04:30:15;4.83;;;3.47;;
63499;SDS011;49654;51.142;14.924;2024-03-25T04:32:42;4.40;;;3.20;;
63499;SDS011;49654;51.142;14.924;2024-03-25T04:35:08;3.50;;;3.20;;
63499;SDS011;49654;51.142;14.924;2024-03-25T04:37:35;4.27;;;3.53;;
63499;SDS011;49654;51.142;14.924;2024-03-25T04:40:01;4.03;;;3.63;;
63499;SDS011;49654;51.142;14.924;2024-03-25T04:42:28;4.70;;;4.20;;
63499;SDS011;49654;51.142;14.924;2024-03-25T04:44:56;4.90;;;3.93;;
63499;SDS011;49654;51.142;14.924;2024-03-25T04:47:22;4.90;;;4.40;;
63499;SDS011;49654;51.142;14.924;2024-03-25T04:49:49;5.80;;;4.67;;
63499;SDS011;49654;51.142;14.924;2024-03-25T04:52:15;5.60;;;4.80;;
63499;SDS011;49654;51.142;14.924;2024-03-25T04:54:42;6.70;;;4.93;;
63499;SDS011;49654;51.142;14.924;2024-03-25T04:57:08;6.80;;;5.00;;
63499;SDS011;49654;51.142;14.924;2024-03-25T04:59:34;7.20;;;5.00;;
63499;SDS011;49654;51.142;14.924;2024-03-25T05:02:01;6.53;;;5.40;;
63499;SDS011;49654;51.142;14.924;2024-03-25T05:04:28;6.40;;;5.50;;
63499;SDS011;49654;51.142;14.924;2024-03-25T05:06:54;8.17;;;5.70;;
63499;SDS011;49654;51.142;14.924;2024-03-25T05:09:20;7.45;;;5.18;;
63499;SDS011;49654;51.142;14.924;2024-03-25T05:11:46;8.03;;;5.50;;
63499;SDS011;49654;51.142;14.924;2024-03-25T05:14:12;9.40;;;6.10;;
63499;SDS011;49654;51.142;14.924;2024-03-25T05:16:38;7.43;;;5.90;;
63499;SDS011;49654;51.142;14.924;2024-03-25T05:19:05;8.73;;;6.30;;
63499;SDS011;49654;51.142;14.924;2024-03-25T05:21:31;6.23;;;5.43;;
63499;SDS011;49654;51.142;14.924;2024-03-25T05:23:58;8.23;;;6.00;;
63499;SDS011;49654;51.142;14.924;2024-03-25T05:26:24;6.70;;;6.00;;
63499;SDS011;49654;51.142;14.924;2024-03-25T05:28:52;10.20;;;6.07;;
63499;SDS011;49654;51.142;14.924;2024-03-25T05:31:18;8.47;;;6.33;;
63499;SDS011;49654;51.142;14.924;2024-03-25T05:33:44;8.97;;;5.83;;
63499;SDS011;49654;51.142;14.924;2024-03-25T05:36:12;8.73;;;5.90;;
63499;SDS011;49654;51.142;14.924;2024-03-25T05:38:38;7.40;;;6.57;;
63499;SDS011;49654;51.142;14.924;2024-03-25T05:41:04;8.60;;;5.97;;
63499;SDS011;49654;51.142;14.924;2024-03-25T05:43:30;6.77;;;6.07;;
63499;SDS011;49654;51.142;14.924;2024-03-25T05:45:56;6.97;;;6.27;;
63499;SDS011;49654;51.142;14.924;2024-03-25T05:48:24;7.30;;;5.97;;
63499;SDS011;49654;51.142;14.924;2024-03-25T05:50:58;9.83;;;6.20;;
63499;SDS011;49654;51.142;14.924;2024-03-25T05:53:26;7.53;;;5.83;;
63499;SDS011;49654;51.142;14.924;2024-03-25T05:55:52;8.63;;;6.00;;
63499;SDS011;49654;51.142;14.924;2024-03-25T05:58:18;9.07;;;6.07;;
63499;SDS011;49654;51.142;14.924;2024-03-25T06:00:46;9.57;;;6.30;;
63499;SDS011;49654;51.142;14.924;2024-03-25T06:03:12;7.37;;;6.47;;
63499;SDS011;49654;51.142;14.924;2024-03-25T06:05:39;10.50;;;5.83;;
63499;SDS011;49654;51.142;14.924;2024-03-25T06:08:05;8.63;;;6.30;;
63499;SDS011;49654;51.142;14.924;2024-03-25T06:10:36;7.80;;;6.17;;
63499;SDS011;49654;51.142;14.924;2024-03-25T06:13:02;10.50;;;6.17;;
63499;SDS011;49654;51.142;14.924;2024-03-25T06:15:28;8.13;;;6.20;;
63499;SDS011;49654;51.142;14.924;2024-03-25T06:17:54;8.60;;;5.60;;
63499;SDS011;49654;51.142;14.924;2024-03-25T06:20:20;9.77;;;6.47;;
63499;SDS011;49654;51.142;14.924;2024-03-25T06:22:47;7.75;;;5.88;;
63499;SDS011;49654;51.142;14.924;2024-03-25T06:25:13;8.93;;;5.87;;
63499;SDS011;49654;51.142;14.924;2024-03-25T06:27:40;8.70;;;6.30;;
63499;SDS011;49654;51.142;14.924;2024-03-25T06:30:07;8.53;;;5.93;;
63499;SDS011;49654;51.142;14.924;2024-03-25T06:32:52;9.80;;;5.90;;
63499;SDS011;49654;51.142;14.924;2024-03-25T06:35:37;10.43;;;6.20;;
63499;SDS011;49654;51.142;14.924;2024-03-25T06:38:03;7.43;;;5.63;;
63499;SDS011;49654;51.142;14.924;2024-03-25T06:40:29;8.97;;;6.17;;
63499;SDS011;49654;51.142;14.924;2024-03-25T06:42:56;6.97;;;5.03;;
63499;SDS011;49654;51.142;14.924;2024-03-25T06:45:22;9.63;;;5.87;;
63499;SDS011;49654;51.142;14.924;2024-03-25T06:47:48;8.38;;;5.43;;
63499;SDS011;49654;51.142;14.924;2024-03-25T06:50:14;7.30;;;5.50;;
63499;SDS011;49654;51.142;14.924;2024-03-25T06:52:40;6.65;;;5.20;;
63499;SDS011;49654;51.142;14.924;2024-03-25T06:55:07;8.20;;;5.57;;
63499;SDS011;49654;51.142;14.924;2024-03-25T06:57:34;7.37;;;5.73;;
63499;SDS011;49654;51.142;14.924;2024-03-25T07:00:01;7.68;;;5.70;;
63499;SDS011;49654;51.142;14.924;2024-03-25T07:02:28;7.73;;;5.43;;
63499;SDS011;49654;51.142;14.924;2024-03-25T07:04:54;8.70;;;5.65;;
63499;SDS011;49654;51.142;14.924;2024-03-25T07:07:20;6.97;;;6.27;;
63499;SDS011;49654;51.142;14.924;2024-03-25T07:09:46;8.98;;;5.70;;
63499;SDS011;49654;51.142;14.924;2024-03-25T07:12:12;8.10;;;5.53;;
63499;SDS011;49654;51.142;14.924;2024-03-25T07:14:38;7.60;;;5.80;;
63499;SDS011;49654;51.142;14.924;2024-03-25T07:17:05;7.13;;;5.77;;
63499;SDS011;49654;51.142;14.924;2024-03-25T07:19:31;8.82;;;5.97;;
63499;SDS011;49654;51.142;14.924;2024-03-25T07:21:57;8.70;;;6.20;;
63499;SDS011;49654;51.142;14.924;2024-03-25T07:24:23;8.00;;;6.00;;
63499;SDS011;49654;51.142;14.924;2024-03-25T07:26:49;9.00;;;5.90;;
63499;SDS011;49654;51.142;14.924;2024-03-25T07:29:15;11.27;;;6.15;;
63499;SDS011;49654;51.142;14.924;2024-03-25T07:31:41;7.78;;;5.72;;
63499;SDS011;49654;51.142;14.924;2024-03-25T07:34:09;8.97;;;5.90;;
63499;SDS011;49654;51.142;14.924;2024-03-25T07:36:35;8.15;;;5.78;;
63499;SDS011;49654;51.142;14.924;2024-03-25T07:39:01;8.40;;;5.90;;
63499;SDS011;49654;51.142;14.924;2024-03-25T07:41:27;7.00;;;5.63;;
63499;SDS011;49654;51.142;14.924;2024-03-25T07:43:53;8.13;;;6.37;;
63499;SDS011;49654;51.142;14.924;2024-03-25T07:46:19;7.67;;;6.07;;
63499;SDS011;49654;51.142;14.924;2024-03-25T07:48:45;8.50;;;6.30;;
63499;SDS011;49654;51.142;14.924;2024-03-25T07:51:12;8.43;;;6.40;;
63499;SDS011;49654;51.142;14.924;2024-03-25T07:53:38;8.73;;;6.10;;
63499;SDS011;49654;51.142;14.924;2024-03-25T07:56:04;15.83;;;6.30;;
63499;SDS011;49654;51.142;14.924;2024-03-25T07:58:31;7.20;;;5.50;;
63499;SDS011;49654;51.142;14.924;2024-03-25T08:00:57;10.63;;;5.90;;
63499;SDS011;49654;51.142;14.924;2024-03-25T08:03:23;7.97;;;5.00;;
63499;SDS011;49654;51.142;14.924;2024-03-25T08:05:49;7.37;;;5.50;;
63499;SDS011;49654;51.142;14.924;2024-03-25T08:08:16;6.93;;;5.70;;
63499;SDS011;49654;51.142;14.924;2024-03-25T08:10:42;5.87;;;5.20;;
63499;SDS011;49654;51.142;14.924;2024-03-25T08:13:08;7.10;;;5.07;;
63499;SDS011;49654;51.142;14.924;2024-03-25T08:15:34;7.73;;;5.17;;
63499;SDS011;49654;51.142;14.924;2024-03-25T08:18:00;7.05;;;5.05;;
63499;SDS011;49654;51.142;14.924;2024-03-25T08:20:26;6.73;;;5.20;;
63499;SDS011;49654;51.142;14.924;2024-03-25T08:22:52;7.18;;;5.60;;
63499;SDS011;49654;51.142;14.924;2024-03-25T08:25:19;8.70;;;5.73;;
63499;SDS011;49654;51.142;14.924;2024-03-25T08:27:45;7.90;;;5.70;;
63499;SDS011;49654;51.142;14.924;2024-03-25T08:30:12;7.90;;;5.17;;
63499;SDS011;49654;51.142;14.924;2024-03-25T08:32:38;6.20;;;5.50;;
63499;SDS011;49654;51.142;14.924;2024-03-25T08:35:04;8.63;;;5.97;;
63499;SDS011;49654;51.142;14.924;2024-03-25T08:37:30;9.07;;;6.30;;
63499;SDS011;49654;51.142;14.924;2024-03-25T08:39:56;10.60;;;6.40;;
63499;SDS011;49654;51.142;14.924;2024-03-25T08:42:24;8.53;;;6.37;;
63499;SDS011;49654;51.142;14.924;2024-03-25T08:44:50;7.93;;;5.90;;
63499;SDS011;49654;51.142;14.924;2024-03-25T08:47:15;7.88;;;5.97;;
63499;SDS011;49654;51.142;14.924;2024-03-25T08:49:41;8.25;;;6.05;;
63499;SDS011;49654;51.142;14.924;2024-03-25T08:52:07;11.30;;;5.57;;
63499;SDS011;49654;51.142;14.924;2024-03-25T08:54:33;9.00;;;6.18;;
63499;SDS011;49654;51.142;14.924;2024-03-25T08:57:00;7.80;;;5.97;;
63499;SDS011;49654;51.142;14.924;2024-03-25T08:59:27;6.28;;;5.68;;
63499;SDS011;49654;51.142;14.924;2024-03-25T09:01:53;8.13;;;6.13;;
63499;SDS011;49654;51.142;14.924;2024-03-25T09:04:19;8.45;;;6.22;;
63499;SDS011;49654;51.142;14.924;2024-03-25T09:06:45;6.82;;;5.82;;
63499;SDS011;49654;51.142;14.924;2024-03-25T09:09:11;9.38;;;6.28;;
63499;SDS011;49654;51.142;14.924;2024-03-25T09:11:55;7.60;;;5.75;;
63499;SDS011;49654;51.142;14.924;2024-03-25T09:14:21;8.65;;;6.43;;
63499;SDS011;49654;51.142;14.924;2024-03-25T09:16:49;8.30;;;5.90;;
63499;SDS011;49654;51.142;14.924;2024-03-25T09:19:15;9.38;;;6.18;;
63499;SDS011;49654;51.142;14.924;2024-03-25T09:21:41;8.77;;;5.88;;
63499;SDS011;49654;51.142;14.924;2024-03-25T09:24:07;8.40;;;5.82;;
63499;SDS011;49654;51.142;14.924;2024-03-25T09:26:33;8.68;;;6.65;;
63499;SDS011;49654;51.142;14.924;2024-03-25T09:28:59;9.80;;;6.40;;
63499;SDS011;49654;51.142;14.924;2024-03-25T09:31:25;7.57;;;5.15;;
63499;SDS011;49654;51.142;14.924;2024-03-25T09:33:53;6.70;;;5.35;;
63499;SDS011;49654;51.142;14.924;2024-03-25T09:36:19;7.15;;;5.25;;
63499;SDS011;49654;51.142;14.924;2024-03-25T09:38:45;7.22;;;5.00;;
63499;SDS011;49654;51.142;14.924;2024-03-25T09:41:11;9.35;;;5.15;;
63499;SDS011;49654;51.142;14.924;2024-03-25T09:43:39;8.02;;;5.10;;
63499;SDS011;49654;51.142;14.924;2024-03-25T09:46:08;5.82;;;4.82;;
63499;SDS011;49654;51.142;14.924;2024-03-25T09:48:35;7.43;;;4.60;;
63499;SDS011;49654;51.142;14.924;2024-03-25T09:51:03;7.00;;;5.20;;
63499;SDS011;49654;51.142;14.924;2024-03-25T09:53:30;9.63;;;4.20;;
63499;SDS011;49654;51.142;14.924;2024-03-25T09:55:56;5.70;;;4.15;;
63499;SDS011;49654;51.142;14.924;2024-03-25T09:58:22;8.27;;;4.88;;
63499;SDS011;49654;51.142;14.924;2024-03-25T10:00:50;5.93;;;3.80;;
63499;SDS011;49654;51.142;14.924;2024-03-25T10:03:17;6.28;;;4.15;;
63499;SDS011;49654;51.142;14.924;2024-03-25T10:05:43;5.68;;;4.05;;
63499;SDS011;49654;51.142;14.924;2024-03-25T10:08:10;5.05;;;3.63;;
63499;SDS011;49654;51.142;14.924;2024-03-25T10:10:36;5.07;;;3.70;;
63499;SDS011;49654;51.142;14.924;2024-03-25T10:13:02;5.40;;;4.10;;
63499;SDS011;49654;51.142;14.924;2024-03-25T10:15:29;4.57;;;3.58;;
63499;SDS011;49654;51.142;14.924;2024-03-25T10:17:55;5.55;;;4.03;;
63499;SDS011;49654;51.142;14.924;2024-03-25T10:20:21;5.07;;;3.40;;
63499;SDS011;49654;51.142;14.924;2024-03-25T10:22:47;4.47;;;3.40;;
63499;SDS011;49654;51.142;14.924;2024-03-25T10:25:25;4.38;;;3.58;;
63499;SDS011;49654;51.142;14.924;2024-03-25T10:27:53;5.25;;;3.72;;
63499;SDS011;49654;51.142;14.924;2024-03-25T10:30:19;5.13;;;3.60;;
63499;SDS011;49654;51.142;14.924;2024-03-25T10:32:45;6.72;;;3.75;;
63499;SDS011;49654;51.142;14.924;2024-03-25T10:35:12;4.53;;;3.88;;
63499;SDS011;49654;51.142;14.924;2024-03-25T10:37:38;8.05;;;3.85;;
63499;SDS011;49654;51.142;14.924;2024-03-25T10:40:05;5.25;;;3.55;;
63499;SDS011;49654;51.142;14.924;2024-03-25T10:42:37;4.50;;;3.83;;
63499;SDS011;49654;51.142;14.924;2024-03-25T10:45:08;6.32;;;3.95;;
63499;SDS011;49654;51.142;14.924;2024-03-25T10:47:35;7.78;;;4.13;;
63499;SDS011;49654;51.142;14.924;2024-03-25T10:50:05;5.05;;;4.22;;
63499;SDS011;49654;51.142;14.924;2024-03-25T10:52:35;5.80;;;4.40;;
63499;SDS011;49654;51.142;14.924;2024-03-25T10:55:03;6.22;;;4.20;;
63499;SDS011;49654;51.142;14.924;2024-03-25T10:57:30;5.57;;;4.63;;
63499;SDS011;49654;51.142;14.924;2024-03-25T10:59:58;8.48;;;4.55;;
63499;SDS011;49654;51.142;14.924;2024-03-25T11:02:27;8.95;;;4.55;;
63499;SDS011;49654;51.142;14.924;2024-03-25T11:04:53;6.15;;;4.80;;
63499;SDS011;49654;51.142;14.924;2024-03-25T11:07:24;6.05;;;5.40;;
63499;SDS011;49654;51.142;14.924;2024-03-25T11:10:02;8.13;;;5.20;;
63499;SDS011;49654;51.142;14.924;2024-03-25T11:12:32;8.43;;;5.05;;
63499;SDS011;49654;51.142;14.924;2024-03-25T11:15:00;8.02;;;5.30;;
63499;SDS011;49654;51.142;14.924;2024-03-25T11:17:26;5.97;;;4.80;;
63499;SDS011;49654;51.142;14.924;2024-03-25T11:19:52;7.28;;;4.90;;
63499;SDS011;49654;51.142;14.924;2024-03-25T11:22:23;6.18;;;5.20;;
63499;SDS011;49654;51.142;14.924;2024-03-25T11:24:50;6.88;;;5.57;;
63499;SDS011;49654;51.142;14.924;2024-03-25T11:27:20;8.07;;;5.38;;
63499;SDS011;49654;51.142;14.924;2024-03-25T11:29:47;6.88;;;5.45;;
63499;SDS011;49654;51.142;14.924;2024-03-25T11:32:15;6.78;;;5.40;;
63499;SDS011;49654;51.142;14.924;2024-03-25T11:34:49;7.50;;;5.05;;
63499;SDS011;49654;51.142;14.924;2024-03-25T11:37:16;9.13;;;5.53;;
63499;SDS011;49654;51.142;14.924;2024-03-25T11:39:42;7.25;;;5.20;;
63499;SDS011;49654;51.142;14.924;2024-03-25T11:42:08;8.63;;;5.03;;
63499;SDS011;49654;51.142;14.924;2024-03-25T11:44:35;5.45;;;4.45;;
63499;SDS011;49654;51.142;14.924;2024-03-25T11:47:03;4.78;;;4.35;;
63499;SDS011;49654;51.142;14.924;2024-03-25T11:49:30;5.40;;;4.47;;
63499;SDS011;49654;51.142;14.924;2024-03-25T11:51:58;5.20;;;4.70;;
63499;SDS011;49654;51.142;14.924;2024-03-25T11:54:26;5.05;;;4.10;;
63499;SDS011;49654;51.142;14.924;2024-03-25T11:56:53;5.30;;;3.90;;
63499;SDS011;49654;51.142;14.924;2024-03-25T11:59:19;4.57;;;4.18;;
63499;SDS011;49654;51.142;14.924;2024-03-25T12:01:45;5.47;;;4.22;;
63499;SDS011;49654;51.142;14.924;2024-03-25T12:04:11;5.78;;;4.00;;
63499;SDS011;49654;51.142;14.924;2024-03-25T12:06:39;4.43;;;3.88;;
63499;SDS011;49654;51.142;14.924;2024-03-25T12:09:05;4.55;;;4.15;;
63499;SDS011;49654;51.142;14.924;2024-03-25T12:11:50;7.28;;;3.65;;
63499;SDS011;49654;51.142;14.924;2024-03-25T12:14:16;6.57;;;3.50;;
63499;SDS011;49654;51.142;14.924;2024-03-25T12:16:42;4.15;;;3.75;;
63499;SDS011;49654;51.142;14.924;2024-03-25T12:19:09;4.28;;;3.30;;
63499;SDS011;49654;51.142;14.924;2024-03-25T12:21:35;4.55;;;3.35;;
63499;SDS011;49654;51.142;14.924;2024-03-25T12:24:04;3.40;;;2.92;;
63499;SDS011;49654;51.142;14.924;2024-03-25T12:26:30;3.40;;;2.70;;
63499;SDS011;49654;51.142;14.924;2024-03-25T12:28:57;2.97;;;2.65;;
63499;SDS011;49654;51.142;14.924;2024-03-25T12:31:23;4.13;;;2.80;;
63499;SDS011;49654;51.142;14.924;2024-03-25T12:33:49;4.25;;;2.53;;
63499;SDS011;49654;51.142;14.924;2024-03-25T12:36:15;3.38;;;2.78;;
63499;SDS011;49654;51.142;14.924;2024-03-25T12:38:41;3.83;;;2.50;;
63499;SDS011;49654;51.142;14.924;2024-03-25T12:41:09;2.95;;;2.35;;
63499;SDS011;49654;51.142;14.924;2024-03-25T12:43:42;3.83;;;2.95;;
63499;SDS011;49654;51.142;14.924;2024-03-25T12:46:09;3.78;;;2.67;;
63499;SDS011;49654;51.142;14.924;2024-03-25T12:48:35;3.90;;;2.80;;
63499;SDS011;49654;51.142;14.924;2024-03-25T12:51:02;3.78;;;2.20;;
63499;SDS011;49654;51.142;14.924;2024-03-25T12:53:28;3.65;;;2.10;;
63499;SDS011;49654;51.142;14.924;2024-03-25T12:55:54;5.22;;;2.40;;
63499;SDS011;49654;51.142;14.924;2024-03-25T12:58:22;2.92;;;2.40;;
63499;SDS011;49654;51.142;14.924;2024-03-25T13:00:48;3.35;;;2.53;;
63499;SDS011;49654;51.142;14.924;2024-03-25T13:03:14;2.70;;;2.15;;
63499;SDS011;49654;51.142;14.924;2024-03-25T13:05:42;3.00;;;2.35;;
63499;SDS011;49654;51.142;14.924;2024-03-25T13:08:09;2.58;;;2.38;;
63499;SDS011;49654;51.142;14.924;2024-03-25T13:10:35;3.88;;;2.47;;
63499;SDS011;49654;51.142;14.924;2024-03-25T13:13:01;3.75;;;2.70;;
63499;SDS011;49654;51.142;14.924;2024-03-25T13:15:29;4.88;;;2.92;;
63499;SDS011;49654;51.142;14.924;2024-03-25T13:17:55;4.65;;;2.75;;
63499;SDS011;49654;51.142;14.924;2024-03-25T13:20:21;4.55;;;2.70;;
63499;SDS011;49654;51.142;14.924;2024-03-25T13:22:48;3.20;;;2.75;;
63499;SDS011;49654;51.142;14.924;2024-03-25T13:25:14;3.60;;;2.55;;
63499;SDS011;49654;51.142;14.924;2024-03-25T13:27:40;3.03;;;2.30;;
63499;SDS011;49654;51.142;14.924;2024-03-25T13:30:07;3.67;;;2.00;;
63499;SDS011;49654;51.142;14.924;2024-03-25T13:32:35;2.13;;;1.70;;
63499;SDS011;49654;51.142;14.924;2024-03-25T13:35:01;6.03;;;2.42;;
63499;SDS011;49654;51.142;14.924;2024-03-25T13:37:27;2.83;;;1.77;;
63499;SDS011;49654;51.142;14.924;2024-03-25T13:39:53;2.58;;;2.28;;
63499;SDS011;49654;51.142;14.924;2024-03-25T13:42:19;5.35;;;2.50;;
63499;SDS011;49654;51.142;14.924;2024-03-25T13:44:45;3.40;;;2.40;;
63499;SDS011;49654;51.142;14.924;2024-03-25T13:47:11;2.63;;;2.10;;
63499;SDS011;49654;51.142;14.924;2024-03-25T13:49:38;3.45;;;2.22;;
63499;SDS011;49654;51.142;14.924;2024-03-25T13:52:04;2.65;;;1.90;;
63499;SDS011;49654;51.142;14.924;2024-03-25T13:54:30;2.20;;;1.98;;
63499;SDS011;49654;51.142;14.924;2024-03-25T13:56:56;2.78;;;1.73;;
63499;SDS011;49654;51.142;14.924;2024-03-25T13:59:23;2.58;;;1.70;;
63499;SDS011;49654;51.142;14.924;2024-03-25T14:01:49;3.85;;;2.47;;
63499;SDS011;49654;51.142;14.924;2024-03-25T14:04:15;3.15;;;2.10;;
63499;SDS011;49654;51.142;14.924;2024-03-25T14:06:43;2.15;;;1.80;;
63499;SDS011;49654;51.142;14.924;2024-03-25T14:09:09;1.90;;;1.70;;
63499;SDS011;49654;51.142;14.924;2024-03-25T14:11:35;1.85;;;1.58;;
63499;SDS011;49654;51.142;14.924;2024-03-25T14:14:01;1.55;;;1.25;;
63499;SDS011;49654;51.142;14.924;2024-03-25T14:16:28;2.00;;;1.77;;
63499;SDS011;49654;51.142;14.924;2024-03-25T14:18:54;8.30;;;6.53;;
63499;SDS011;49654;51.142;14.924;2024-03-25T14:21:20;5.30;;;2.97;;
63499;SDS011;49654;51.142;14.924;2024-03-25T14:23:48;2.83;;;2.45;;
63499;SDS011;49654;51.142;14.924;2024-03-25T14:26:14;12.40;;;10.68;;
63499;SDS011;49654;51.142;14.924;2024-03-25T14:28:40;4.40;;;3.70;;
63499;SDS011;49654;51.142;14.924;2024-03-25T14:31:06;4.38;;;2.97;;